tititudorancea.com
Station Historical Data
Daily Summary for May 11, 2018 Units:  Metric    English   Both
« Previous Day
Next Day »
Daily Weekly Monthly Yearly Custom
  High: Low: Average:
Temperature: -17.8 °C 6.5 °C 8.8 °C
Dew Point: -17.8 °C 5 °C 7.1 °C
Humidity: Humidity % 80 % 89 %
Wind Speed: 0 km/h 0 km/h 26.4 km/h
Wind Gust: 0 km/h - -
Wind:- - SW
Pressure: 0 hPa 1012.1 hPa -
Precipitation: 7.87 mm    
Historical Graphs
 
 
Ararat weather Find more about Weather in Ararat, AU


 



 


Tabular Data for May 11, 2018
Time Temperature Dew Point Pressure Wind Wind Speed Wind Gust Humidity Rainfall Rate (Hourly)
-17.8 °C -17.8 °C 0 hPa Calm     Humidity % 0 mm
00:00 6.5 °C 5 °C 1012.4 hPa North 17.2 km/h 22.2 km/h 90 % 0 mm
00:05 6.5 °C 5.1 °C 1012.4 hPa SW 12.9 km/h 18.5 km/h 91 % 0 mm
00:10 6.6 °C 5.2 °C 1012.4 hPa SW 19 km/h 31.5 km/h 91 % 0 mm
00:12 6.6 °C 5.2 °C 1012.4 hPa North 20.8 km/h 31.5 km/h 91 % 0 mm
00:17 6.6 °C 5.2 °C 1012.4 hPa SW 15.8 km/h 31.5 km/h 91 % 0.25 mm
00:22 6.6 °C 5.2 °C 1012.1 hPa SW 16.9 km/h 18.5 km/h 91 % 0.25 mm
00:27 6.7 °C 5.4 °C 1012.1 hPa SW 15.9 km/h 20.4 km/h 92 % 0.51 mm
00:32 6.7 °C 5.5 °C 1012.1 hPa SW 15.1 km/h 35.2 km/h 92 % 0.51 mm
00:37 6.7 °C 5.5 °C 1012.1 hPa SW 20.1 km/h 31.5 km/h 92 % 0.51 mm
00:42 6.8 °C 5.6 °C 1012.1 hPa SW 14.5 km/h 24.1 km/h 92 % 0.51 mm
00:47 6.8 °C 5.6 °C 1012.1 hPa SW 14.3 km/h 25.9 km/h 92 % 0.51 mm
00:52 6.7 °C 5.5 °C 1012.4 hPa SW 25.1 km/h 31.5 km/h 92 % 0.51 mm
00:57 6.8 °C 5.6 °C 1012.1 hPa North 11.4 km/h 18.5 km/h 92 % 0.51 mm
01:02 6.8 °C 5.6 °C 1012.1 hPa SW 17.4 km/h 25.7 km/h 92 % 0.51 mm
01:07 6.8 °C 5.6 °C 1012.1 hPa SW 20.4 km/h 27.8 km/h 92 % 0.51 mm
01:12 6.9 °C 5.5 °C 1012.1 hPa SW 20.3 km/h 27.8 km/h 91 % 0.51 mm
01:17 6.9 °C 5.5 °C 1012.4 hPa SW 21.2 km/h 35.2 km/h 91 % 0.25 mm
01:22 6.9 °C 5.4 °C 1012.4 hPa SW 16.1 km/h 20.4 km/h 90 % 0.25 mm
01:27 7.1 °C 5.5 °C 1012.4 hPa North 22.9 km/h 31.5 km/h 90 % 0.25 mm
01:32 7.2 °C 5.6 °C 1012.4 hPa SSW 25.7 km/h 38.9 km/h 90 % 0.25 mm
01:37 7.2 °C 5.6 °C 1012.8 hPa North 25.9 km/h 33.8 km/h 90 % 0.51 mm
01:42 7.1 °C 5.6 °C 1012.8 hPa North 30.1 km/h 31.5 km/h 90 % 0.51 mm
01:47 7.1 °C 5.5 °C 1013.1 hPa SSW 18.7 km/h 37 km/h 90 % 0.76 mm
01:52 7 °C 5.6 °C 1013.1 hPa North 27.4 km/h 42.6 km/h 91 % 1.02 mm
01:57 7 °C 5.6 °C 1013.1 hPa SW 27.2 km/h 42.6 km/h 91 % 1.52 mm
02:02 6.9 °C 5.6 °C 1013.1 hPa South 11.7 km/h 18.5 km/h 91 % 2.29 mm
02:07 6.9 °C 5.5 °C 1013.1 hPa South 22.4 km/h 31.5 km/h 91 % 2.29 mm
02:12 6.8 °C 5.4 °C 1013.1 hPa SSW 10 km/h 14.8 km/h 91 % 2.54 mm
02:17 6.8 °C 5.6 °C 1013.1 hPa SSW 10 km/h 24.1 km/h 92 % 2.79 mm
02:22 6.8 °C 5.6 °C 1013.1 hPa SSW 7.4 km/h 13 km/h 92 % 3.3 mm
02:27 6.8 °C 5.6 °C 1013.1 hPa SW 12.7 km/h 20.9 km/h 92 % 3.81 mm
02:32 6.8 °C 5.7 °C 1013.1 hPa North 10.6 km/h 14.8 km/h 93 % 4.06 mm
02:37 6.9 °C 5.8 °C 1013.1 hPa North 12.2 km/h 20.9 km/h 93 % 3.81 mm
02:42 6.9 °C 5.8 °C 1012.8 hPa WSW 16.1 km/h 20.4 km/h 93 % 3.56 mm
02:47 6.9 °C 5.8 °C 1012.8 hPa WSW 16.9 km/h 24.1 km/h 93 % 3.56 mm
02:52 6.9 °C 5.8 °C 1012.8 hPa SW 13.8 km/h 18.5 km/h 93 % 3.3 mm
02:57 6.9 °C 5.9 °C 1012.8 hPa WSW 11.1 km/h 14.8 km/h 93 % 2.79 mm
03:02 7 °C 5.9 °C 1012.8 hPa SW 14 km/h 18.5 km/h 93 % 2.29 mm
03:07 7.1 °C 6 °C 1012.8 hPa WSW 11.1 km/h 22.2 km/h 93 % 2.03 mm
03:12 7.3 °C 6.2 °C 1012.8 hPa WSW 20.6 km/h 31.5 km/h 93 % 2.03 mm
03:17 7.5 °C 6.4 °C 1012.8 hPa SSW 18.2 km/h 25.9 km/h 93 % 1.78 mm
03:22 7.7 °C 6.4 °C 1012.8 hPa SW 25.1 km/h 33.8 km/h 92 % 1.27 mm
03:27 7.8 °C 6.6 °C 1012.8 hPa North 24.1 km/h 37 km/h 92 % 0.51 mm
03:32 8.1 °C 6.8 °C 1012.8 hPa SW 34.9 km/h 48.1 km/h 92 % 0.51 mm
03:37 8.1 °C 6.6 °C 1012.8 hPa SW 22 km/h 31.5 km/h 90 % 0.51 mm
03:42 8.1 °C 6.5 °C 1013.1 hPa SSW 22.9 km/h 33.3 km/h 90 % 0.25 mm
03:47 8 °C 6.6 °C 1013.1 hPa North 27.5 km/h 37 km/h 91 % 0.25 mm
03:52 7.9 °C 6.6 °C 1012.8 hPa SW 31.7 km/h 42.6 km/h 91 % 0.25 mm
03:57 7.9 °C 6.3 °C 1013.1 hPa WSW 27.2 km/h 37 km/h 90 % 0.25 mm
04:02 7.8 °C 6.3 °C 1013.1 hPa SSW 22.4 km/h 31.5 km/h 90 % 0.25 mm
04:07 7.9 °C 6.3 °C 1013.1 hPa SSW 24.1 km/h 38.9 km/h 90 % 0.25 mm
04:12 7.9 °C 6.6 °C 1013.1 hPa SW 12.4 km/h 18.5 km/h 91 % 0 mm
04:17 7.9 °C 6.6 °C 1013.1 hPa SSW 15 km/h 29.6 km/h 91 % 0 mm
04:22 7.9 °C 6.5 °C 1013.1 hPa SW 18.8 km/h 35.2 km/h 91 % 0 mm
04:27 7.8 °C 6.4 °C 1013.1 hPa SSW 28 km/h 38.9 km/h 91 % 0 mm
04:32 7.9 °C 6.2 °C 1013.1 hPa SW 24.1 km/h 38.9 km/h 89 % 0 mm
04:37 8.1 °C 6.2 °C 1013.1 hPa WSW 36.9 km/h 55.5 km/h 88 % 0 mm
04:42 8.3 °C 6.1 °C 1013.1 hPa SSW 27.5 km/h 42.6 km/h 86 % 0 mm
04:47 8.3 °C 5.9 °C 1013.1 hPa SSW 24.6 km/h 42.6 km/h 85 % 0 mm
04:52 8.3 °C 5.9 °C 1013.1 hPa SSW 24.5 km/h 35.2 km/h 85 % 0 mm
04:57 8.3 °C 5.7 °C 1013.1 hPa SW 18.7 km/h 27.8 km/h 84 % 0 mm
05:02 8.2 °C 5.5 °C 1013.1 hPa SSW 21.2 km/h 25.9 km/h 83 % 0 mm
05:07 8.3 °C 5.4 °C 1013.1 hPa SW 23.8 km/h 37 km/h 82 % 0 mm
05:12 8.3 °C 5.3 °C 1013.1 hPa SW 25.9 km/h 33.3 km/h 81 % 0 mm
05:17 8.4 °C 5.3 °C 1013.4 hPa SW 15.8 km/h 29.6 km/h 81 % 0 mm
05:22 8.4 °C 5.4 °C 1013.4 hPa WSW 23.3 km/h 32.2 km/h 81 % 0 mm
05:27 8.6 °C 5.3 °C 1013.4 hPa SSW 24.1 km/h 44.4 km/h 80 % 0 mm
05:32 8.5 °C 5.2 °C 1013.4 hPa SSW 26.2 km/h 44.4 km/h 80 % 0 mm
05:37 8.5 °C 5.2 °C 1013.4 hPa SSW 21.9 km/h 33.3 km/h 80 % 0 mm
05:42 8.4 °C 5.4 °C 1013.4 hPa SW 19 km/h 33.3 km/h 81 % 0 mm
05:52 8.2 °C 5.4 °C 1013.4 hPa SW 24.9 km/h 38.9 km/h 83 % 0 mm
05:57 8 °C 5.4 °C 1013.4 hPa SW 27 km/h 38.9 km/h 84 % 0 mm
06:07 7.9 °C 5.8 °C 1013.4 hPa SW 18 km/h 31.5 km/h 87 % 0.25 mm
06:12 7.8 °C 5.9 °C 1013.4 hPa WSW 22 km/h 31.5 km/h 88 % 0.51 mm
06:17 7.8 °C 5.9 °C 1013.4 hPa SSW 24.8 km/h 40.7 km/h 88 % 0.51 mm
06:22 7.9 °C 6 °C 1013.8 hPa SSW 32.5 km/h 42.6 km/h 88 % 0.51 mm
06:27 7.9 °C 6 °C 1013.8 hPa North 20.4 km/h 38.9 km/h 88 % 0.76 mm
06:32 7.9 °C 6 °C 1013.8 hPa SW 22.5 km/h 35.2 km/h 88 % 0.76 mm
06:37 7.9 °C 6.2 °C 1013.8 hPa SW 19.2 km/h 27.8 km/h 89 % 1.02 mm
06:42 7.8 °C 6.1 °C 1014.1 hPa SW 17.7 km/h 31.5 km/h 89 % 1.02 mm
06:47 7.8 °C 6.3 °C 1014.1 hPa SSW 26.7 km/h 35.2 km/h 90 % 1.27 mm
06:52 7.8 °C 6.2 °C 1014.1 hPa SSW 21.7 km/h 33.3 km/h 90 % 1.27 mm
06:57 7.8 °C 6.2 °C 1014.1 hPa SW 27.2 km/h 40.7 km/h 90 % 1.27 mm
07:02 7.8 °C 6.2 °C 1013.8 hPa SW 34.9 km/h 50 km/h 90 % 1.27 mm
07:07 7.8 °C 6.3 °C 1014.1 hPa SSW 32.5 km/h 46.7 km/h 90 % 1.27 mm
07:12 7.8 °C 6.2 °C 1014.1 hPa SW 26.4 km/h 38.9 km/h 90 % 0.76 mm
07:17 7.7 °C 6.3 °C 1014.1 hPa WSW 32 km/h 48.1 km/h 91 % 1.02 mm
07:22 7.8 °C 6.4 °C 1014.1 hPa WSW 25.3 km/h 38.9 km/h 91 % 1.02 mm
07:27 7.8 °C 6.4 °C 1014.1 hPa SSW 30.4 km/h 44.4 km/h 91 % 0.76 mm
07:32 7.8 °C 6.4 °C 1014.1 hPa SW 26.6 km/h 40.7 km/h 91 % 0.76 mm
07:37 7.8 °C 6.4 °C 1014.1 hPa SW 34.4 km/h 40.7 km/h 91 % 0.76 mm
07:42 7.8 °C 6.4 °C 1014.4 hPa SW 35.7 km/h 42.6 km/h 91 % 0.76 mm
07:47 7.8 °C 6.4 °C 1014.4 hPa SSW 29.6 km/h 48.3 km/h 91 % 0.76 mm
07:52 7.8 °C 6.6 °C 1014.4 hPa SW 33.6 km/h 50 km/h 92 % 0.51 mm
07:57 7.8 °C 6.6 °C 1014.4 hPa SW 25.4 km/h 38.9 km/h 92 % 0.76 mm
08:02 7.8 °C 6.6 °C 1014.4 hPa SW 29 km/h 38.9 km/h 92 % 0.76 mm
08:07 7.9 °C 6.7 °C 1014.8 hPa WSW 27.8 km/h 42.6 km/h 92 % 0.76 mm
08:12 7.9 °C 6.7 °C 1014.8 hPa SW 24.6 km/h 30.6 km/h 92 % 0.76 mm
08:17 7.9 °C 6.7 °C 1014.8 hPa SW 30.9 km/h 51.8 km/h 92 % 0.76 mm
08:22 7.9 °C 6.7 °C 1014.8 hPa SW 32 km/h 42.6 km/h 92 % 0.76 mm
08:27 7.9 °C 6.7 °C 1014.8 hPa SSW 29.8 km/h 38.9 km/h 92 % 0.76 mm
08:32 8 °C 6.8 °C 1014.8 hPa SW 27.5 km/h 31.5 km/h 92 % 0.76 mm
08:37 8 °C 6.8 °C 1014.8 hPa SSW 28 km/h 42.6 km/h 92 % 0.51 mm
08:42 8 °C 6.8 °C 1014.8 hPa SW 33 km/h 45.1 km/h 92 % 0.51 mm
08:47 8.1 °C 6.8 °C 1014.8 hPa SSW 26.9 km/h 40.2 km/h 92 % 0.51 mm
08:52 8.1 °C 7.1 °C 1014.8 hPa SSW 28.6 km/h 46.3 km/h 93 % 0.51 mm
08:57 8.2 °C 7.2 °C 1015.1 hPa SW 28.2 km/h 35.2 km/h 93 % 0.51 mm
09:02 8.3 °C 7.1 °C 1015.1 hPa SSW 32.3 km/h 42.6 km/h 92 % 0.51 mm
09:07 8.3 °C 7.3 °C 1014.8 hPa SSW 37.5 km/h 48.1 km/h 93 % 0.51 mm
09:12 8.5 °C 7.4 °C 1014.8 hPa SSW 26.4 km/h 37 km/h 93 % 0.51 mm
09:17 8.6 °C 7.3 °C 1014.8 hPa North 26.2 km/h 50 km/h 92 % 0.25 mm
09:22 8.6 °C 7.4 °C 1014.8 hPa North 27.5 km/h 42.6 km/h 92 % 0.25 mm
09:27 8.7 °C 7.4 °C 1014.8 hPa SSW 32.3 km/h 48.1 km/h 92 % 0.25 mm
09:32 8.8 °C 7.6 °C 1014.8 hPa North 27.5 km/h 33.3 km/h 92 % 0.25 mm
09:37 8.8 °C 7.6 °C 1015.1 hPa SSW 35.6 km/h 42.6 km/h 92 % 0.25 mm
09:42 8.9 °C 7.7 °C 1015.1 hPa SSW 37.8 km/h 42.6 km/h 92 % 0.25 mm
09:47 8.9 °C 7.7 °C 1014.8 hPa North 38 km/h 51.8 km/h 92 % 0 mm
09:52 9.1 °C 7.9 °C 1015.1 hPa SSW 29.8 km/h 42.6 km/h 92 % 0 mm
09:57 9.4 °C 8.2 °C 1014.8 hPa SW 30.4 km/h 44.4 km/h 92 % 0 mm
10:02 9.4 °C 8.1 °C 1015.1 hPa SSW 36.4 km/h 48.3 km/h 91 % 0 mm
10:07 9.5 °C 8.1 °C 1015.1 hPa SSW 30.6 km/h 42.6 km/h 91 % 0 mm
10:12 9.6 °C 8.2 °C 1015.1 hPa SSW 38.6 km/h 51.8 km/h 91 % 0 mm
10:17 9.6 °C 8.2 °C 1014.8 hPa SSW 40.1 km/h 55.5 km/h 91 % 0 mm
10:22 9.7 °C 8.3 °C 1015.1 hPa SSW 38.3 km/h 68.6 km/h 91 % 0 mm
10:27 9.6 °C 8.2 °C 1015.1 hPa SW 27.4 km/h 48.3 km/h 91 % 0 mm
10:32 9.5 °C 8.3 °C 1015.1 hPa SSW 40.9 km/h 53.1 km/h 92 % 0 mm
10:37 9.6 °C 8.2 °C 1015.1 hPa SSW 34.6 km/h 53.8 km/h 91 % 0 mm
10:42 9.7 °C 8.3 °C 1015.5 hPa SSW 48.4 km/h 62.9 km/h 91 % 0 mm
10:47 9.7 °C 8.3 °C 1015.1 hPa SW 36.9 km/h 51.8 km/h 91 % 0 mm
10:52 9.7 °C 8.3 °C 1015.1 hPa SSW 39.7 km/h 55.5 km/h 91 % 0 mm
10:57 9.7 °C 8.3 °C 1015.5 hPa South 38.5 km/h 62.9 km/h 91 % 0 mm
11:02 9.9 °C 8.6 °C 1015.5 hPa SSW 36.4 km/h 51.5 km/h 91 % 0 mm
11:07 10 °C 8.4 °C 1015.5 hPa SW 30.4 km/h 55.5 km/h 90 % 0 mm
11:12 9.9 °C 8.6 °C 1015.5 hPa SSW 42.2 km/h 53.8 km/h 91 % 0 mm
11:17 9.9 °C 8.6 °C 1015.8 hPa SSW 28.8 km/h 55.5 km/h 91 % 0 mm
11:22 9.9 °C 8.6 °C 1015.5 hPa SSW 42 km/h 57.5 km/h 91 % 0 mm
11:27 10 °C 8.6 °C 1015.8 hPa SSW 35.7 km/h 42.6 km/h 91 % 0 mm
11:32 10.1 °C 8.7 °C 1015.5 hPa South 41.5 km/h 55.5 km/h 91 % 0 mm
11:37 10.1 °C 8.6 °C 1015.5 hPa SSW 37.2 km/h 50 km/h 90 % 0 mm
11:42 10.1 °C 8.6 °C 1015.8 hPa SW 34 km/h 34 km/h 90 % 0 mm
11:47 10.1 °C 8.7 °C 1015.8 hPa SW 21.9 km/h 38.9 km/h 91 % 0 mm
11:52 10.2 °C 8.6 °C 1015.8 hPa SSW 35.7 km/h 57.5 km/h 90 % 0 mm
11:57 10.2 °C 8.6 °C 1015.5 hPa SSW 31.5 km/h 48.1 km/h 90 % 0 mm
12:02 10.2 °C 8.6 °C 1015.5 hPa SSW 43.3 km/h 57.5 km/h 90 % 0 mm
12:07 10.3 °C 8.8 °C 1015.5 hPa South 32.7 km/h 46.3 km/h 90 % 0 mm
12:12 10.3 °C 8.6 °C 1015.5 hPa South 40.2 km/h 64.9 km/h 89 % 0 mm
12:17 10.2 °C 8.7 °C 1015.5 hPa SSW 37.7 km/h 68.6 km/h 90 % 0 mm
12:22 10.2 °C 8.7 °C 1015.1 hPa SSW 36.5 km/h 51.8 km/h 90 % 0 mm
12:27 10.2 °C 8.5 °C 1015.5 hPa SSW 34.9 km/h 51.8 km/h 89 % 0 mm
12:32 10.1 °C 8.6 °C 1015.1 hPa South 35.4 km/h 55.5 km/h 90 % 0 mm
12:37 10.1 °C 8.6 °C 1015.1 hPa SSW 32.2 km/h 55.5 km/h 90 % 0 mm
12:42 10.1 °C 8.7 °C 1015.1 hPa North 35.2 km/h 49.9 km/h 91 % 0 mm
12:47 10.1 °C 8.5 °C 1015.5 hPa SSW 37 km/h 64.9 km/h 90 % 0 mm
12:52 10 °C 8.6 °C 1015.5 hPa SSW 39.4 km/h 42.6 km/h 91 % 0 mm
13:02 10.1 °C 8.7 °C 1015.5 hPa Calm   51.8 km/h 91 % 0 mm
13:07 10.1 °C 8.6 °C 1015.5 hPa SSW 43.5 km/h 62.8 km/h 90 % 0 mm
13:17 10 °C 8.4 °C 1015.5 hPa SW 37.8 km/h 46.7 km/h 90 % 0 mm
13:22 10.1 °C 8.5 °C 1015.8 hPa North 27.7 km/h 48.3 km/h 90 % 0 mm
13:27 9.9 °C 8.6 °C 1015.1 hPa SSW 37 km/h 46.3 km/h 91 % 0 mm
13:29 9.9 °C 8.5 °C 1015.1 hPa SSW 33.6 km/h 59.2 km/h 91 % 0 mm
13:34 9.8 °C 8.6 °C 1015.5 hPa SSW 30.4 km/h 53.8 km/h 92 % 0 mm
13:39 9.7 °C 8.5 °C 1015.1 hPa SW 37.3 km/h 53.8 km/h 92 % 0 mm
13:44 9.9 °C 8.7 °C 1015.1 hPa South 22.2 km/h 42.6 km/h 92 % 0 mm
13:49 10 °C 8.8 °C 1015.1 hPa SSW 30.9 km/h 48.3 km/h 92 % 0 mm
13:54 10.2 °C 8.8 °C 1015.1 hPa SSW 27.4 km/h 38.9 km/h 91 % 0 mm
13:59 9.9 °C 8.6 °C 1015.1 hPa SSW 41.8 km/h 68.6 km/h 91 % 0 mm
14:04 9.9 °C 8.7 °C 1015.1 hPa North 25.1 km/h 51.8 km/h 92 % 0 mm
14:09 10 °C 8.8 °C 1015.5 hPa South 28.2 km/h 55.5 km/h 92 % 0 mm
14:14 10.1 °C 8.8 °C 1015.5 hPa SSW 36 km/h 46.3 km/h 92 % 0.25 mm
14:19 10.2 °C 8.8 °C 1015.8 hPa South 40.9 km/h 55.5 km/h 91 % 0.25 mm
14:24 10.1 °C 8.7 °C 1015.8 hPa SSE 32.8 km/h 68.6 km/h 91 % 0.25 mm
14:29 10 °C 8.6 °C 1015.8 hPa SSW 24.3 km/h 48.1 km/h 91 % 0.25 mm
14:34 9.8 °C 8.4 °C 1015.8 hPa SSW 21.2 km/h 51.8 km/h 91 % 0.25 mm
14:39 9.8 °C 8.6 °C 1015.8 hPa SW 31.9 km/h 42.6 km/h 92 % 0.25 mm
14:44 9.7 °C 8.5 °C 1015.8 hPa SSW 28 km/h 51.8 km/h 92 % 0.25 mm
14:50 9.7 °C 8.5 °C 1016.1 hPa North 38.1 km/h 50 km/h 92 % 0.25 mm
14:55 9.7 °C 8.5 °C 1016.1 hPa SSW 36 km/h 50 km/h 92 % 0.25 mm
15:00 9.8 °C 8.6 °C 1016.1 hPa SSW 31.4 km/h 50 km/h 92 % 0.25 mm
15:05 9.8 °C 8.6 °C 1016.1 hPa SSW 31.5 km/h 48.1 km/h 92 % 0.25 mm
15:10 9.8 °C 8.6 °C 1016.5 hPa South 28.3 km/h 53.8 km/h 92 % 0.25 mm
15:15 9.7 °C 8.5 °C 1016.5 hPa SSW 31.9 km/h 51.8 km/h 92 % 0 mm
15:20 9.7 °C 8.5 °C 1016.5 hPa SW 23 km/h 37 km/h 92 % 0 mm
15:25 9.7 °C 8.4 °C 1016.8 hPa North 33.8 km/h 51.8 km/h 92 % 0 mm
15:30 9.8 °C 8.6 °C 1016.8 hPa SSW 27.2 km/h 44.4 km/h 92 % 0 mm
15:35 9.8 °C 8.4 °C 1016.8 hPa SSW 37.7 km/h 51.8 km/h 91 % 0 mm
15:40 9.7 °C 8.4 °C 1016.8 hPa SSW 29.9 km/h 42.6 km/h 92 % 0 mm
15:45 9.7 °C 8.4 °C 1017.2 hPa South 23.3 km/h 44.4 km/h 92 % 0 mm
15:50 9.6 °C 8.4 °C 1017.2 hPa SSW 24.9 km/h 42.6 km/h 92 % 0 mm
15:55 9.6 °C 8.4 °C 1017.2 hPa South 31.2 km/h 48.1 km/h 92 % 0 mm
16:00 9.6 °C 8.3 °C 1017.2 hPa SSW 38.1 km/h 42.6 km/h 92 % 0 mm
16:05 9.4 °C 8.2 °C 1017.2 hPa SSW 26.1 km/h 35.2 km/h 92 % 0 mm
16:10 9.4 °C 8.2 °C 1017.2 hPa SSW 31.2 km/h 40.7 km/h 92 % 0 mm
16:15 9.6 °C 8.2 °C 1017.2 hPa SSW 31.9 km/h 46.7 km/h 91 % 0 mm
16:20 9.7 °C 8.3 °C 1017.5 hPa SSW 30.4 km/h 50 km/h 91 % 0 mm
16:25 9.6 °C 8.1 °C 1017.5 hPa SSW 34.4 km/h 51.8 km/h 90 % 0 mm
16:30 9.6 °C 8.1 °C 1017.5 hPa SSW 33.5 km/h 44.4 km/h 90 % 0 mm
16:35 9.6 °C 8.1 °C 1017.5 hPa SSW 30.4 km/h 38.9 km/h 90 % 0 mm
16:40 9.6 °C 8 °C 1017.8 hPa North 23.8 km/h 42.6 km/h 90 % 0 mm
16:45 9.6 °C 8 °C 1017.8 hPa SSW 24.3 km/h 33.3 km/h 90 % 0 mm
16:50 9.6 °C 8 °C 1017.8 hPa SW 34.1 km/h 40.7 km/h 90 % 0 mm
16:55 9.7 °C 7.9 °C 1017.8 hPa SSW 31.5 km/h 44.4 km/h 89 % 0 mm
17:00 9.7 °C 7.8 °C 1017.8 hPa SSW 21.7 km/h 42.6 km/h 88 % 0 mm
17:05 9.7 °C 7.8 °C 1017.8 hPa SSW 20.3 km/h 32.2 km/h 88 % 0 mm
17:15 9.7 °C 7.8 °C 1018.2 hPa SSW 31.7 km/h 42.6 km/h 88 % 0 mm
17:20 9.7 °C 7.8 °C 1018.5 hPa South 27.4 km/h 48.3 km/h 88 % 0 mm
17:25 9.7 °C 7.7 °C 1018.2 hPa SSW 18.7 km/h 29 km/h 87 % 0 mm
17:30 9.7 °C 7.7 °C 1018.5 hPa North 23.2 km/h 31.5 km/h 87 % 0 mm
17:35 9.7 °C 7.6 °C 1018.5 hPa South 31.2 km/h 40.7 km/h 87 % 0 mm
17:40 9.6 °C 7.6 °C 1018.5 hPa North 20.9 km/h 31.5 km/h 87 % 0 mm
17:45 9.6 °C 7.7 °C 1018.5 hPa SSW 19.6 km/h 31.5 km/h 88 % 0 mm
17:50 9.6 °C 7.6 °C 1018.8 hPa SSW 31.1 km/h 40.7 km/h 87 % 0 mm
17:55 9.7 °C 7.5 °C 1018.8 hPa SW 24 km/h 37 km/h 86 % 0 mm
18:00 9.7 °C 7.5 °C 1018.8 hPa SW 24.6 km/h 35.2 km/h 86 % 0 mm
18:05 9.7 °C 7.4 °C 1018.8 hPa SSW 24.6 km/h 32.2 km/h 86 % 0 mm
18:10 9.6 °C 7.5 °C 1018.8 hPa SSW 24 km/h 35.2 km/h 87 % 0 mm
18:15 9.5 °C 7.4 °C 1019.2 hPa SSW 19 km/h 30.6 km/h 87 % 0 mm
18:20 9.4 °C 7.5 °C 1019.2 hPa South 20.4 km/h 33.3 km/h 88 % 0 mm
18:25 9.3 °C 8.1 °C 1019.2 hPa SSW 24 km/h 29.6 km/h 92 % 0 mm
18:30 9.4 °C 7.5 °C 1019.2 hPa SSW 21.4 km/h 38.9 km/h 88 % 0 mm
18:35 9.4 °C 7.4 °C 1019.5 hPa SW 23.3 km/h 40.7 km/h 87 % 0 mm
18:40 9.5 °C 7.4 °C 1019.5 hPa SSW 28.8 km/h 38.9 km/h 87 % 0 mm
18:45 9.4 °C 7.6 °C 1019.9 hPa SSW 26.2 km/h 38.9 km/h 88 % 0 mm
18:50 9.5 °C 7.6 °C 1019.9 hPa South 22.4 km/h 33.3 km/h 88 % 0 mm
18:55 9.5 °C 7.4 °C 1019.9 hPa SW 21.7 km/h 31.5 km/h 87 % 0 mm
19:00 9.6 °C 7.6 °C 1019.9 hPa SSW 27 km/h 40.7 km/h 87 % 0 mm
19:05 9.6 °C 7.4 °C 1019.9 hPa South 23.5 km/h 35.4 km/h 86 % 0 mm
19:10 9.6 °C 7.4 °C 1019.9 hPa South 24 km/h 35.2 km/h 86 % 0 mm
19:15 9.7 °C 7.4 °C 1019.9 hPa North 16.7 km/h 35.2 km/h 86 % 0 mm
19:20 9.7 °C 7.4 °C 1019.9 hPa SSW 19.5 km/h 31.5 km/h 86 % 0 mm
19:25 9.7 °C 7.3 °C 1019.9 hPa SSW 22.7 km/h 38.6 km/h 85 % 0 mm
19:30 9.7 °C 7.3 °C 1019.9 hPa SSW 28.3 km/h 38.6 km/h 85 % 0 mm
19:35 9.7 °C 7.3 °C 1019.9 hPa SSW 23 km/h 38.9 km/h 85 % 0 mm
19:40 9.7 °C 7.3 °C 1019.9 hPa SW 18.7 km/h 33.3 km/h 85 % 0 mm
19:45 9.7 °C 7.3 °C 1020.2 hPa South 26.9 km/h 40.7 km/h 85 % 0 mm
19:50 9.7 °C 7.3 °C 1020.2 hPa SSW 23 km/h 37 km/h 85 % 0 mm
19:55 9.7 °C 7.3 °C 1020.2 hPa North 25.4 km/h 35.4 km/h 85 % 0 mm
20:00 9.7 °C 7.3 °C 1020.2 hPa SSW 23.8 km/h 37 km/h 85 % 0 mm
20:05 9.7 °C 7.3 °C 1020.2 hPa WSW 25.1 km/h 31.5 km/h 85 % 0 mm
20:10 9.6 °C 7.2 °C 1020.2 hPa SSW 29.3 km/h 40.7 km/h 85 % 0 mm
20:15 9.7 °C 7.3 °C 1020.5 hPa South 28.2 km/h 38.9 km/h 85 % 0 mm
20:20 9.7 °C 7.3 °C 1020.5 hPa SSW 27.4 km/h 33.3 km/h 85 % 0 mm
20:25 9.7 °C 7.3 °C 1020.5 hPa South 22.5 km/h 37 km/h 85 % 0 mm
20:30 9.6 °C 7.2 °C 1020.5 hPa SSW 27.2 km/h 35.2 km/h 85 % 0 mm
20:35 9.6 °C 7.2 °C 1020.9 hPa SSW 24.3 km/h 33.3 km/h 85 % 0 mm
20:40 9.6 °C 7.2 °C 1020.9 hPa SSW 22.7 km/h 29.6 km/h 85 % 0 mm
20:45 9.6 °C 7.2 °C 1020.9 hPa SSW 26.4 km/h 33.3 km/h 85 % 0 mm
20:47 9.6 °C 7.2 °C 1020.9 hPa SSW 23.3 km/h 37 km/h 85 % 0 mm
20:50 9.5 °C 7.3 °C 1020.9 hPa North 24.6 km/h 38.9 km/h 86 % 0 mm
20:55 9.5 °C 7.3 °C 1020.9 hPa South 22.9 km/h 33.3 km/h 86 % 0 mm
21:00 9.5 °C 7.3 °C 1020.9 hPa North 25.3 km/h 33.3 km/h 86 % 0 mm
21:05 9.5 °C 7.3 °C 1020.9 hPa SW 25.7 km/h 31.5 km/h 86 % 0 mm
21:10 9.5 °C 7.3 °C 1021.2 hPa South 29.5 km/h 40.7 km/h 86 % 0 mm
21:15 9.5 °C 7.3 °C 1021.2 hPa SW 30.1 km/h 30.6 km/h 86 % 0 mm
21:20 9.5 °C 7.3 °C 1020.9 hPa North 24.6 km/h 37 km/h 86 % 0 mm
21:25 9.4 °C 7.2 °C 1021.2 hPa SSW 27 km/h 41.8 km/h 86 % 0 mm
21:30 9.4 °C 7.2 °C 1021.2 hPa North 24 km/h 33.3 km/h 86 % 0 mm
21:35 9.4 °C 7.4 °C 1021.2 hPa SSW 22.4 km/h 42.6 km/h 87 % 0 mm
21:40 9.5 °C 7.3 °C 1021.2 hPa North 26.4 km/h 38.9 km/h 86 % 0 mm
21:45 9.5 °C 7.3 °C 1021.2 hPa SSW 29.9 km/h 42.6 km/h 86 % 0 mm
21:50 9.5 °C 7.4 °C 1021.6 hPa North 25.7 km/h 42.6 km/h 87 % 0 mm
21:55 9.5 °C 7.4 °C 1021.6 hPa South 27.2 km/h 38.9 km/h 87 % 0 mm
22:00 9.5 °C 7.4 °C 1021.6 hPa SSW 16.7 km/h 18.5 km/h 87 % 0 mm
22:05 9.4 °C 7.4 °C 1021.6 hPa SSW 25.9 km/h 31.5 km/h 87 % 0 mm
22:10 9.5 °C 7.3 °C 1021.6 hPa SSW 21.1 km/h 38.9 km/h 86 % 0 mm
22:15 9.5 °C 7.3 °C 1021.6 hPa North 23 km/h 33.8 km/h 86 % 0 mm
22:20 9.4 °C 7.2 °C 1021.6 hPa SSW 29.1 km/h 40.7 km/h 86 % 0 mm
22:25 9.4 °C 7.2 °C 1021.6 hPa North 24.8 km/h 38.9 km/h 86 % 0 mm
22:30 9.5 °C 7.3 °C 1021.6 hPa SSW 22 km/h 33.3 km/h 86 % 0 mm
22:35 9.5 °C 7.3 °C 1021.6 hPa SSW 25.1 km/h 43.5 km/h 86 % 0 mm
22:40 9.5 °C 7.3 °C 1021.6 hPa SSW 27.4 km/h 37 km/h 86 % 0 mm
22:45 9.4 °C 7.4 °C 1021.6 hPa South 22.9 km/h 40.7 km/h 87 % 0 mm
22:50 9.4 °C 7.4 °C 1021.6 hPa SSW 24.9 km/h 31.5 km/h 87 % 0 mm
22:55 9.4 °C 7.4 °C 1021.6 hPa South 26.7 km/h 31.5 km/h 87 % 0 mm
23:00 9.4 °C 7.3 °C 1021.6 hPa SSW 24.6 km/h 32.2 km/h 87 % 0 mm
23:05 9.4 °C 7.3 °C 1021.2 hPa North 28.2 km/h 35.2 km/h 87 % 0 mm
23:10 9.4 °C 7.3 °C 1021.2 hPa North 20.9 km/h 33.3 km/h 87 % 0 mm
23:15 9.4 °C 7.3 °C 1021.6 hPa North 31.2 km/h 40.7 km/h 87 % 0 mm
23:20 9.3 °C 7.4 °C 1021.6 hPa SSW 22 km/h 33.3 km/h 88 % 0 mm
23:25 9.3 °C 7.4 °C 1021.6 hPa SW 19.8 km/h 31.5 km/h 88 % 0 mm
23:30 9.3 °C 7.4 °C 1021.6 hPa North 23.3 km/h 31.5 km/h 88 % 0 mm
23:35 9.3 °C 7.4 °C 1021.6 hPa SSW 20.8 km/h 27.8 km/h 88 % 0 mm
23:40 9.3 °C 7.6 °C 1021.6 hPa SSW 18 km/h 37 km/h 89 % 0 mm
23:45 9.2 °C 7.5 °C 1021.6 hPa North 29.8 km/h 46.3 km/h 89 % 0 mm
23:50 9.2 °C 7.4 °C 1021.9 hPa North 30.7 km/h 40.7 km/h 89 % 0 mm
23:55 9.2 °C 7.4 °C 1021.9 hPa North 18.8 km/h 38.9 km/h 89 % 0 mm
Ararat Weather
Compliments of Weather Underground - 2.25 mb
Click here to send mail.


ABOUT

Live weather data from Ararat, Victoria, Australia, 3377
Data uploaded from Cumulus every 5 minutes to Weather Underground.
This site then downloads the raw data for formatting and display.
Metric and imperial data can be displayed. Graphs and historical data available.
Includes Sun and Moon times and rain image live from BOM.

Check out Ararat Weather on Facebook, Twitter and Google +

Help support ongoing costs by checking out the ads





Follow @AraratWeather